sensor_id;sensor_type;location;lat;lon;timestamp;pressure;altitude;pressure_sealevel;temperature;humidity
78354;BME280;67629;46.040;18.232;2023-10-13T00:00:22;100013.13;;;16.13;92.07
78354;BME280;67629;46.040;18.232;2023-10-13T00:01:15;100011.47;;;16.12;92.31
78354;BME280;67629;46.040;18.232;2023-10-13T00:02:02;100005.13;;;16.12;92.00
78354;BME280;67629;46.040;18.232;2023-10-13T00:02:49;100008.72;;;16.12;92.19
78354;BME280;67629;46.040;18.232;2023-10-13T00:03:19;100011.72;;;16.11;92.18
78354;BME280;67629;46.040;18.232;2023-10-13T00:03:52;100004.03;;;16.13;92.04
78354;BME280;67629;46.040;18.232;2023-10-13T00:04:23;100007.59;;;16.08;92.41
78354;BME280;67629;46.040;18.232;2023-10-13T00:04:55;100000.41;;;16.07;92.50
78354;BME280;67629;46.040;18.232;2023-10-13T00:05:28;100009.56;;;16.13;92.21
78354;BME280;67629;46.040;18.232;2023-10-13T00:06:00;100004.00;;;16.08;92.31
78354;BME280;67629;46.040;18.232;2023-10-13T00:06:33;100010.34;;;16.13;92.39
78354;BME280;67629;46.040;18.232;2023-10-13T00:07:04;100004.31;;;16.11;92.68
78354;BME280;67629;46.040;18.232;2023-10-13T00:07:39;100001.84;;;16.10;92.28
78354;BME280;67629;46.040;18.232;2023-10-13T00:08:10;99988.00;;;16.05;92.28
78354;BME280;67629;46.040;18.232;2023-10-13T00:08:40;99987.22;;;16.04;92.29
78354;BME280;67629;46.040;18.232;2023-10-13T00:09:11;99980.03;;;16.03;92.46
78354;BME280;67629;46.040;18.232;2023-10-13T00:09:45;99990.22;;;16.08;92.55
78354;BME280;67629;46.040;18.232;2023-10-13T00:10:15;99988.28;;;16.03;92.25
78354;BME280;67629;46.040;18.232;2023-10-13T00:10:49;99982.78;;;16.03;92.50
78354;BME280;67629;46.040;18.232;2023-10-13T00:11:19;99981.69;;;16.04;92.77
78354;BME280;67629;46.040;18.232;2023-10-13T00:11:52;99982.78;;;16.03;92.37
78354;BME280;67629;46.040;18.232;2023-10-13T00:12:24;99980.03;;;16.03;92.45
78354;BME280;67629;46.040;18.232;2023-10-13T00:12:55;99985.53;;;16.03;92.53
78354;BME280;67629;46.040;18.232;2023-10-13T00:13:35;99979.75;;;16.05;92.11
78354;BME280;67629;46.040;18.232;2023-10-13T00:14:21;99977.81;;;16.05;92.85
78354;BME280;67629;46.040;18.232;2023-10-13T00:14:52;99987.22;;;16.09;92.60
78354;BME280;67629;46.040;18.232;2023-10-13T00:15:24;99983.09;;;16.12;92.02
78354;BME280;67629;46.040;18.232;2023-10-13T00:15:58;99985.28;;;16.10;92.97
78354;BME280;67629;46.040;18.232;2023-10-13T00:16:29;99980.59;;;16.10;92.88
78354;BME280;67629;46.040;18.232;2023-10-13T00:17:02;99983.63;;;16.09;92.33
78354;BME280;67629;46.040;18.232;2023-10-13T00:17:46;99987.78;;;16.11;92.95
78354;BME280;67629;46.040;18.232;2023-10-13T00:18:17;99987.78;;;16.11;92.40
78354;BME280;67629;46.040;18.232;2023-10-13T00:18:50;99980.34;;;16.12;92.50
78354;BME280;67629;46.040;18.232;2023-10-13T00:19:24;99977.28;;;16.08;92.92
78354;BME280;67629;46.040;18.232;2023-10-13T00:19:56;99983.91;;;16.12;92.79
78354;BME280;67629;46.040;18.232;2023-10-13T00:20:30;99976.75;;;16.11;92.67
78354;BME280;67629;46.040;18.232;2023-10-13T00:21:10;99985.56;;;16.13;92.42
78354;BME280;67629;46.040;18.232;2023-10-13T00:21:44;99975.91;;;16.11;92.87
78354;BME280;67629;46.040;18.232;2023-10-13T00:22:15;99980.59;;;16.10;92.26
78354;BME280;67629;46.040;18.232;2023-10-13T00:22:46;99988.06;;;16.10;92.42
78354;BME280;67629;46.040;18.232;2023-10-13T00:23:18;99985.84;;;16.12;92.69
78354;BME280;67629;46.040;18.232;2023-10-13T00:23:52;99984.47;;;16.14;92.76
78354;BME280;67629;46.040;18.232;2023-10-13T00:24:22;99982.81;;;16.13;92.62
78354;BME280;67629;46.040;18.232;2023-10-13T00:25:00;99984.75;;;16.13;92.86
78354;BME280;67629;46.040;18.232;2023-10-13T00:25:34;99979.50;;;16.06;92.62
78354;BME280;67629;46.040;18.232;2023-10-13T00:26:13;99982.78;;;16.08;92.58
78354;BME280;67629;46.040;18.232;2023-10-13T00:26:48;99977.81;;;16.05;92.86
78354;BME280;67629;46.040;18.232;2023-10-13T00:27:20;99982.78;;;16.08;93.04
78354;BME280;67629;46.040;18.232;2023-10-13T00:28:01;99982.25;;;16.06;93.12
78354;BME280;67629;46.040;18.232;2023-10-13T00:28:32;99987.47;;;16.08;93.12
78354;BME280;67629;46.040;18.232;2023-10-13T00:29:16;99980.56;;;16.05;93.05
78354;BME280;67629;46.040;18.232;2023-10-13T00:29:47;99984.72;;;16.08;93.58
78354;BME280;67629;46.040;18.232;2023-10-13T00:30:20;99982.78;;;16.03;92.95
78354;BME280;67629;46.040;18.232;2023-10-13T00:30:54;99985.25;;;16.05;93.46
78354;BME280;67629;46.040;18.232;2023-10-13T00:31:31;99980.56;;;16.05;93.18
78354;BME280;67629;46.040;18.232;2023-10-13T00:32:06;99978.66;;;16.06;93.33
78354;BME280;67629;46.040;18.232;2023-10-13T00:32:46;99977.28;;;16.03;93.26
78354;BME280;67629;46.040;18.232;2023-10-13T00:33:21;99979.19;;;16.03;93.24
78354;BME280;67629;46.040;18.232;2023-10-13T00:33:53;99983.34;;;16.05;93.05
78354;BME280;67629;46.040;18.232;2023-10-13T00:34:26;99983.34;;;16.05;93.28
78354;BME280;67629;46.040;18.232;2023-10-13T00:34:57;99983.63;;;16.04;93.61
78354;BME280;67629;46.040;18.232;2023-10-13T00:35:30;99972.03;;;16.02;93.44
78354;BME280;67629;46.040;18.232;2023-10-13T00:36:07;99968.41;;;15.96;93.62
78354;BME280;67629;46.040;18.232;2023-10-13T00:36:40;99984.41;;;15.94;94.16
78354;BME280;67629;46.040;18.232;2023-10-13T00:37:40;99982.78;;;15.98;94.07
78354;BME280;67629;46.040;18.232;2023-10-13T00:38:14;99979.72;;;15.94;94.00
78354;BME280;67629;46.040;18.232;2023-10-13T00:38:47;99978.06;;;15.93;94.15
78354;BME280;67629;46.040;18.232;2023-10-13T00:39:18;99970.63;;;15.94;94.26
78354;BME280;67629;46.040;18.232;2023-10-13T00:39:49;99982.19;;;15.96;94.12
78354;BME280;67629;46.040;18.232;2023-10-13T00:40:26;99981.09;;;15.97;94.54
78354;BME280;67629;46.040;18.232;2023-10-13T00:41:00;99979.44;;;15.91;94.62
78354;BME280;67629;46.040;18.232;2023-10-13T00:41:37;99968.41;;;15.91;94.93
78354;BME280;67629;46.040;18.232;2023-10-13T00:42:28;99975.59;;;15.92;94.29
78354;BME280;67629;46.040;18.232;2023-10-13T00:43:20;99971.44;;;15.89;94.66
78354;BME280;67629;46.040;18.232;2023-10-13T00:43:51;99973.09;;;15.90;94.65
78354;BME280;67629;46.040;18.232;2023-10-13T00:44:37;99969.22;;;15.86;95.10
78354;BME280;67629;46.040;18.232;2023-10-13T00:45:12;99964.53;;;15.82;95.00
78354;BME280;67629;46.040;18.232;2023-10-13T00:45:50;99974.44;;;15.83;95.02
78354;BME280;67629;46.040;18.232;2023-10-13T00:46:38;99970.03;;;15.82;95.81
78354;BME280;67629;46.040;18.232;2023-10-13T00:47:10;99974.69;;;15.81;95.45
78354;BME280;67629;46.040;18.232;2023-10-13T00:47:47;99976.13;;;15.84;95.30
78354;BME280;67629;46.040;18.232;2023-10-13T00:48:32;99981.03;;;15.82;95.49
78354;BME280;67629;46.040;18.232;2023-10-13T00:49:05;99975.53;;;15.82;95.39
78354;BME280;67629;46.040;18.232;2023-10-13T00:49:37;99969.19;;;15.81;95.44
78354;BME280;67629;46.040;18.232;2023-10-13T00:50:11;99977.75;;;15.85;95.47
78354;BME280;67629;46.040;18.232;2023-10-13T00:50:45;99979.13;;;15.82;95.69
78354;BME280;67629;46.040;18.232;2023-10-13T00:51:18;99980.22;;;15.81;95.55
78354;BME280;67629;46.040;18.232;2023-10-13T00:52:11;99979.94;;;15.78;95.69
78354;BME280;67629;46.040;18.232;2023-10-13T00:52:44;99971.38;;;15.74;95.77
78354;BME280;67629;46.040;18.232;2023-10-13T00:53:25;99979.66;;;15.74;96.08
78354;BME280;67629;46.040;18.232;2023-10-13T00:53:56;99984.59;;;15.72;95.77
78354;BME280;67629;46.040;18.232;2023-10-13T00:54:27;99988.75;;;15.75;95.95
78354;BME280;67629;46.040;18.232;2023-10-13T00:54:59;99987.34;;;15.72;96.37
78354;BME280;67629;46.040;18.232;2023-10-13T00:55:31;99987.59;;;15.71;96.33
78354;BME280;67629;46.040;18.232;2023-10-13T00:56:04;99988.44;;;15.71;96.22
78354;BME280;67629;46.040;18.232;2023-10-13T00:56:39;99994.78;;;15.72;96.57
78354;BME280;67629;46.040;18.232;2023-10-13T00:57:27;99985.69;;;15.66;96.75
78354;BME280;67629;46.040;18.232;2023-10-13T00:57:59;99993.13;;;15.71;96.40
78354;BME280;67629;46.040;18.232;2023-10-13T00:58:34;99989.81;;;15.69;96.84
78354;BME280;67629;46.040;18.232;2023-10-13T00:59:05;99989.50;;;15.65;96.44
78354;BME280;67629;46.040;18.232;2023-10-13T00:59:40;99989.22;;;15.62;96.85
78354;BME280;67629;46.040;18.232;2023-10-13T01:00:13;99988.66;;;15.55;97.23
78354;BME280;67629;46.040;18.232;2023-10-13T01:00:54;99985.06;;;15.59;97.58
78354;BME280;67629;46.040;18.232;2023-10-13T01:01:47;99990.59;;;15.59;97.37
78354;BME280;67629;46.040;18.232;2023-10-13T01:02:24;99987.28;;;15.57;97.22
78354;BME280;67629;46.040;18.232;2023-10-13T01:03:06;99989.75;;;15.59;97.46
78354;BME280;67629;46.040;18.232;2023-10-13T01:03:37;99982.88;;;15.61;97.19
78354;BME280;67629;46.040;18.232;2023-10-13T01:04:10;99988.66;;;15.60;97.43
78354;BME280;67629;46.040;18.232;2023-10-13T01:04:42;99976.28;;;15.62;97.29
78354;BME280;67629;46.040;18.232;2023-10-13T01:05:17;99994.72;;;15.62;97.34
78354;BME280;67629;46.040;18.232;2023-10-13T01:05:50;99989.75;;;15.59;97.13
78354;BME280;67629;46.040;18.232;2023-10-13T01:06:25;99984.78;;;15.56;97.71
78354;BME280;67629;46.040;18.232;2023-10-13T01:06:57;99987.81;;;15.54;97.33
78354;BME280;67629;46.040;18.232;2023-10-13T01:07:29;99989.44;;;15.50;97.34
78354;BME280;67629;46.040;18.232;2023-10-13T01:08:00;99987.78;;;15.49;97.85
78354;BME280;67629;46.040;18.232;2023-10-13T01:08:34;99990.81;;;15.53;97.67
78354;BME280;67629;46.040;18.232;2023-10-13T01:09:10;99987.50;;;15.51;97.67
78354;BME280;67629;46.040;18.232;2023-10-13T01:09:46;99991.94;;;15.52;97.96
78354;BME280;67629;46.040;18.232;2023-10-13T01:10:17;99999.63;;;15.50;98.22
78354;BME280;67629;46.040;18.232;2023-10-13T01:10:49;99995.50;;;15.52;97.92
78354;BME280;67629;46.040;18.232;2023-10-13T01:11:20;99996.28;;;15.48;98.20
78354;BME280;67629;46.040;18.232;2023-10-13T01:11:54;99996.31;;;15.53;98.50
78354;BME280;67629;46.040;18.232;2023-10-13T01:12:27;99985.31;;;15.53;98.29
78354;BME280;67629;46.040;18.232;2023-10-13T01:12:59;99991.66;;;15.53;98.59
78354;BME280;67629;46.040;18.232;2023-10-13T01:13:33;99984.50;;;15.52;98.48
78354;BME280;67629;46.040;18.232;2023-10-13T01:14:06;99977.88;;;15.48;98.43
78354;BME280;67629;46.040;18.232;2023-10-13T01:14:37;99980.91;;;15.47;98.32
78354;BME280;67629;46.040;18.232;2023-10-13T01:15:08;99981.41;;;15.44;98.63
78354;BME280;67629;46.040;18.232;2023-10-13T01:15:41;99981.41;;;15.44;98.63
78354;BME280;67629;46.040;18.232;2023-10-13T01:16:12;99973.38;;;15.42;98.72
78354;BME280;67629;46.040;18.232;2023-10-13T01:16:42;99976.97;;;15.43;98.50
78354;BME280;67629;46.040;18.232;2023-10-13T01:17:14;99974.47;;;15.41;98.58
78354;BME280;67629;46.040;18.232;2023-10-13T01:17:45;99974.19;;;15.37;99.08
78354;BME280;67629;46.040;18.232;2023-10-13T01:18:16;99975.03;;;15.38;99.47
78354;BME280;67629;46.040;18.232;2023-10-13T01:18:47;99975.88;;;15.44;98.94
78354;BME280;67629;46.040;18.232;2023-10-13T01:19:19;99982.47;;;15.43;99.33
78354;BME280;67629;46.040;18.232;2023-10-13T01:19:55;99981.09;;;15.40;98.85
78354;BME280;67629;46.040;18.232;2023-10-13T01:20:28;99969.25;;;15.39;99.12
78354;BME280;67629;46.040;18.232;2023-10-13T01:20:59;99977.50;;;15.39;99.13
78354;BME280;67629;46.040;18.232;2023-10-13T01:21:30;99983.31;;;15.43;99.74
78354;BME280;67629;46.040;18.232;2023-10-13T01:22:00;99975.88;;;15.44;99.21
78354;BME280;67629;46.040;18.232;2023-10-13T01:22:34;99968.72;;;15.43;99.36
78354;BME280;67629;46.040;18.232;2023-10-13T01:23:10;99975.88;;;15.44;98.87
78354;BME280;67629;46.040;18.232;2023-10-13T01:23:48;99971.44;;;15.37;99.43
78354;BME280;67629;46.040;18.232;2023-10-13T01:24:21;99970.63;;;15.42;99.54
78354;BME280;67629;46.040;18.232;2023-10-13T01:24:54;99966.78;;;15.38;99.13
78354;BME280;67629;46.040;18.232;2023-10-13T01:25:36;99974.47;;;15.41;99.56
78354;BME280;67629;46.040;18.232;2023-10-13T01:26:06;99967.34;;;15.40;99.31
78354;BME280;67629;46.040;18.232;2023-10-13T01:26:37;99974.22;;;15.43;99.15
78354;BME280;67629;46.040;18.232;2023-10-13T01:27:09;99976.41;;;15.40;99.03
78354;BME280;67629;46.040;18.232;2023-10-13T01:27:50;99976.97;;;15.43;99.72
78354;BME280;67629;46.040;18.232;2023-10-13T01:28:22;99970.34;;;15.38;99.54
78354;BME280;67629;46.040;18.232;2023-10-13T01:28:57;99973.66;;;15.40;99.48
78354;BME280;67629;46.040;18.232;2023-10-13T01:29:28;99972.56;;;15.41;99.26
78354;BME280;67629;46.040;18.232;2023-10-13T01:29:59;99975.06;;;15.43;99.26
78354;BME280;67629;46.040;18.232;2023-10-13T01:30:36;99972.56;;;15.41;99.41
78354;BME280;67629;46.040;18.232;2023-10-13T01:31:09;99984.16;;;15.44;99.02
78354;BME280;67629;46.040;18.232;2023-10-13T01:31:43;99976.69;;;15.44;99.83
78354;BME280;67629;46.040;18.232;2023-10-13T01:32:21;99978.59;;;15.38;99.67
78354;BME280;67629;46.040;18.232;2023-10-13T01:32:52;99984.09;;;15.38;99.47
78354;BME280;67629;46.040;18.232;2023-10-13T01:33:24;99974.19;;;15.37;99.62
78354;BME280;67629;46.040;18.232;2023-10-13T01:33:58;99976.38;;;15.35;99.28
78354;BME280;67629;46.040;18.232;2023-10-13T01:34:29;99979.97;;;15.36;99.88
78354;BME280;67629;46.040;18.232;2023-10-13T01:35:04;99970.31;;;15.33;99.93
78354;BME280;67629;46.040;18.232;2023-10-13T01:35:39;99973.91;;;15.39;100.00
78354;BME280;67629;46.040;18.232;2023-10-13T01:36:17;99971.41;;;15.32;99.96
78354;BME280;67629;46.040;18.232;2023-10-13T01:36:49;99971.69;;;15.36;100.00
78354;BME280;67629;46.040;18.232;2023-10-13T01:37:23;99972.28;;;15.38;100.00
78354;BME280;67629;46.040;18.232;2023-10-13T01:37:54;99962.03;;;15.28;99.96
78354;BME280;67629;46.040;18.232;2023-10-13T01:38:24;99969.44;;;15.23;99.94
78354;BME280;67629;46.040;18.232;2023-10-13T01:38:58;99963.38;;;15.21;100.00
78354;BME280;67629;46.040;18.232;2023-10-13T01:39:31;99964.19;;;15.21;100.00
78354;BME280;67629;46.040;18.232;2023-10-13T01:40:02;99967.22;;;15.25;100.00
78354;BME280;67629;46.040;18.232;2023-10-13T01:40:35;99971.13;;;15.29;100.00
78354;BME280;67629;46.040;18.232;2023-10-13T01:41:05;99972.75;;;15.30;100.00
78354;BME280;67629;46.040;18.232;2023-10-13T01:41:37;99963.41;;;15.31;100.00
78354;BME280;67629;46.040;18.232;2023-10-13T01:42:09;99971.97;;;15.34;100.00
78354;BME280;67629;46.040;18.232;2023-10-13T01:42:47;99960.38;;;15.32;100.00
78354;BME280;67629;46.040;18.232;2023-10-13T01:45:09;99978.88;;;15.37;100.00
78354;BME280;67629;46.040;18.232;2023-10-13T01:45:40;99971.97;;;15.34;100.00
78354;BME280;67629;46.040;18.232;2023-10-13T01:46:17;99976.97;;;15.37;100.00
78354;BME280;67629;46.040;18.232;2023-10-13T01:46:52;99975.84;;;15.38;100.00
78354;BME280;67629;46.040;18.232;2023-10-13T01:47:22;99978.59;;;15.38;100.00
78354;BME280;67629;46.040;18.232;2023-10-13T01:47:54;99983.28;;;15.38;100.00
78354;BME280;67629;46.040;18.232;2023-10-13T01:48:25;99980.25;;;15.34;100.00
78354;BME280;67629;46.040;18.232;2023-10-13T01:49:21;99980.25;;;15.34;100.00
78354;BME280;67629;46.040;18.232;2023-10-13T01:49:53;99980.78;;;15.36;100.00
78354;BME280;67629;46.040;18.232;2023-10-13T01:50:24;99983.00;;;15.34;100.00
78354;BME280;67629;46.040;18.232;2023-10-13T01:51:00;99984.63;;;15.35;100.00
78354;BME280;67629;46.040;18.232;2023-10-13T01:51:32;99982.47;;;15.37;100.00
78354;BME280;67629;46.040;18.232;2023-10-13T01:52:03;99984.09;;;15.38;100.00
78354;BME280;67629;46.040;18.232;2023-10-13T01:52:34;99982.13;;;15.29;100.00
78354;BME280;67629;46.040;18.232;2023-10-13T01:53:05;99981.84;;;15.30;100.00
78354;BME280;67629;46.040;18.232;2023-10-13T01:54:21;99978.00;;;15.26;100.00
78354;BME280;67629;46.040;18.232;2023-10-13T01:54:51;99985.09;;;15.22;100.00
78354;BME280;67629;46.040;18.232;2023-10-13T01:55:47;99980.16;;;15.24;100.00
78354;BME280;67629;46.040;18.232;2023-10-13T01:56:18;99982.38;;;15.27;100.00
78354;BME280;67629;46.040;18.232;2023-10-13T01:56:53;99975.78;;;15.23;100.00
78354;BME280;67629;46.040;18.232;2023-10-13T01:57:25;99976.88;;;15.27;100.00
78354;BME280;67629;46.040;18.232;2023-10-13T01:57:55;99970.28;;;15.28;100.00
78354;BME280;67629;46.040;18.232;2023-10-13T01:58:26;99971.38;;;15.27;100.00
78354;BME280;67629;46.040;18.232;2023-10-13T01:58:59;99972.75;;;15.25;100.00
78354;BME280;67629;46.040;18.232;2023-10-13T01:59:29;99972.97;;;15.18;100.00
78354;BME280;67629;46.040;18.232;2023-10-13T02:00:00;99972.16;;;15.18;100.00
78354;BME280;67629;46.040;18.232;2023-10-13T02:00:49;99974.66;;;15.24;100.00
78354;BME280;67629;46.040;18.232;2023-10-13T02:01:19;99976.88;;;15.27;100.00
78354;BME280;67629;46.040;18.232;2023-10-13T02:02:03;99965.03;;;15.27;100.00
78354;BME280;67629;46.040;18.232;2023-10-13T02:02:35;99972.50;;;15.26;100.00
78354;BME280;67629;46.040;18.232;2023-10-13T02:03:09;99974.41;;;15.26;100.00
78354;BME280;67629;46.040;18.232;2023-10-13T02:17:38;99968.38;;;15.29;100.00
78354;BME280;67629;46.040;18.232;2023-10-13T02:18:16;99967.00;;;15.31;100.00
78354;BME280;67629;46.040;18.232;2023-10-13T02:19:09;99968.63;;;15.32;100.00
78354;BME280;67629;46.040;18.232;2023-10-13T02:19:45;99969.22;;;15.34;100.00
78354;BME280;67629;46.040;18.232;2023-10-13T02:20:17;99960.69;;;15.36;100.00
78354;BME280;67629;46.040;18.232;2023-10-13T02:21:04;99971.97;;;15.34;100.00
78354;BME280;67629;46.040;18.232;2023-10-13T02:21:35;99967.78;;;15.27;100.00
78354;BME280;67629;46.040;18.232;2023-10-13T02:22:15;99961.47;;;15.26;100.00
78354;BME280;67629;46.040;18.232;2023-10-13T02:22:54;99968.38;;;15.29;100.00
78354;BME280;67629;46.040;18.232;2023-10-13T02:23:25;99961.47;;;15.26;100.00
78354;BME280;67629;46.040;18.232;2023-10-13T02:23:59;99959.78;;;15.20;100.00
78354;BME280;67629;46.040;18.232;2023-10-13T02:24:30;99965.88;;;15.27;100.00
78354;BME280;67629;46.040;18.232;2023-10-13T02:25:01;99963.13;;;15.27;100.00
78354;BME280;67629;46.040;18.232;2023-10-13T02:25:36;99960.91;;;15.24;100.00
78354;BME280;67629;46.040;18.232;2023-10-13T02:26:13;99958.16;;;15.24;100.00
78354;BME280;67629;46.040;18.232;2023-10-13T02:36:22;99959.19;;;15.13;100.00
78354;BME280;67629;46.040;18.232;2023-10-13T02:36:53;99959.72;;;15.15;100.00
78354;BME280;67629;46.040;18.232;2023-10-13T02:37:24;99962.22;;;15.12;100.00
78354;BME280;67629;46.040;18.232;2023-10-13T02:37:55;99961.38;;;15.11;100.00
78354;BME280;67629;46.040;18.232;2023-10-13T02:38:26;99959.41;;;15.07;100.00
78354;BME280;67629;46.040;18.232;2023-10-13T02:39:06;99967.41;;;15.08;100.00
78354;BME280;67629;46.040;18.232;2023-10-13T02:39:40;99966.25;;;15.04;100.00
78354;BME280;67629;46.040;18.232;2023-10-13T02:40:13;99962.41;;;15.00;100.00
78354;BME280;67629;46.040;18.232;2023-10-13T02:40:44;99962.09;;;14.97;100.00
78354;BME280;67629;46.040;18.232;2023-10-13T02:41:19;99962.13;;;15.02;100.00
78354;BME280;67629;46.040;18.232;2023-10-13T02:41:56;99964.34;;;15.05;100.00
78354;BME280;67629;46.040;18.232;2023-10-13T02:42:28;99962.44;;;15.05;100.00
78354;BME280;67629;46.040;18.232;2023-10-13T02:42:59;99960.75;;;15.04;100.00
78354;BME280;67629;46.040;18.232;2023-10-13T02:43:36;99958.28;;;15.03;100.00
78354;BME280;67629;46.040;18.232;2023-10-13T02:44:07;99962.97;;;15.02;100.00
78354;BME280;67629;46.040;18.232;2023-10-13T02:44:39;99958.28;;;15.03;100.00
78354;BME280;67629;46.040;18.232;2023-10-13T02:45:14;99967.63;;;15.02;100.00
78354;BME280;67629;46.040;18.232;2023-10-13T02:48:22;99969.84;;;15.05;100.00
78354;BME280;67629;46.040;18.232;2023-10-13T02:48:52;99966.50;;;14.98;100.00
78354;BME280;67629;46.040;18.232;2023-10-13T02:49:25;99967.91;;;15.00;100.00
78354;BME280;67629;46.040;18.232;2023-10-13T02:49:57;99971.72;;;14.94;100.00
78354;BME280;67629;46.040;18.232;2023-10-13T02:50:31;99966.75;;;14.96;100.00
78354;BME280;67629;46.040;18.232;2023-10-13T02:51:03;99967.31;;;14.98;100.00
78354;BME280;67629;46.040;18.232;2023-10-13T02:51:37;99967.84;;;14.95;100.00
78354;BME280;67629;46.040;18.232;2023-10-13T02:52:12;99961.25;;;14.96;100.00
78354;BME280;67629;46.040;18.232;2023-10-13T02:52:43;99963.75;;;14.98;100.00
78354;BME280;67629;46.040;18.232;2023-10-13T02:53:18;99972.25;;;14.96;100.00
78354;BME280;67629;46.040;18.232;2023-10-13T02:53:49;99968.97;;;14.94;100.00
78354;BME280;67629;46.040;18.232;2023-10-13T02:54:20;99964.81;;;14.92;100.00
78354;BME280;67629;46.040;18.232;2023-10-13T02:54:50;99963.69;;;14.93;100.00
78354;BME280;67629;46.040;18.232;2023-10-13T02:55:21;99962.06;;;14.92;100.00
78354;BME280;67629;46.040;18.232;2023-10-13T02:55:56;99960.94;;;14.88;100.00
78354;BME280;67629;46.040;18.232;2023-10-13T02:56:39;99958.69;;;14.84;100.00
78354;BME280;67629;46.040;18.232;2023-10-13T02:57:29;99962.59;;;14.89;100.00
78354;BME280;67629;46.040;18.232;2023-10-13T02:58:04;99963.13;;;14.86;100.00
78354;BME280;67629;46.040;18.232;2023-10-13T02:58:35;99967.25;;;14.88;100.00
78354;BME280;67629;46.040;18.232;2023-10-13T02:59:09;99979.06;;;14.83;100.00
78354;BME280;67629;46.040;18.232;2023-10-13T02:59:44;99962.28;;;14.85;100.00
78354;BME280;67629;46.040;18.232;2023-10-13T03:00:17;99971.38;;;14.86;100.00
78354;BME280;67629;46.040;18.232;2023-10-13T03:00:48;99969.72;;;14.90;100.00
78354;BME280;67629;46.040;18.232;2023-10-13T03:01:20;99961.22;;;14.91;100.00
78354;BME280;67629;46.040;18.232;2023-10-13T03:01:52;99961.22;;;14.91;100.00
78354;BME280;67629;46.040;18.232;2023-10-13T03:02:23;99965.94;;;14.96;100.00
78354;BME280;67629;46.040;18.232;2023-10-13T03:02:58;99969.81;;;15.00;100.00
78354;BME280;67629;46.040;18.232;2023-10-13T03:03:29;99965.69;;;14.97;100.00
78354;BME280;67629;46.040;18.232;2023-10-13T03:04:02;99965.72;;;15.02;100.00
78354;BME280;67629;46.040;18.232;2023-10-13T03:04:33;99962.34;;;14.95;100.00
78354;BME280;67629;46.040;18.232;2023-10-13T03:05:04;99963.19;;;14.96;100.00
78354;BME280;67629;46.040;18.232;2023-10-13T03:05:44;99964.00;;;14.96;100.00
78354;BME280;67629;46.040;18.232;2023-10-13T03:06:16;99971.75;;;14.99;100.00
78354;BME280;67629;46.040;18.232;2023-10-13T03:09:19;99966.19;;;14.89;100.00
78354;BME280;67629;46.040;18.232;2023-10-13T03:09:52;99964.22;;;14.90;100.00
78354;BME280;67629;46.040;18.232;2023-10-13T03:10:23;99961.78;;;14.93;100.00
78354;BME280;67629;46.040;18.232;2023-10-13T03:10:59;99969.50;;;14.96;100.00
78354;BME280;67629;46.040;18.232;2023-10-13T03:11:31;99968.75;;;15.01;100.00
78354;BME280;67629;46.040;18.232;2023-10-13T03:12:03;99968.13;;;14.94;100.00
78354;BME280;67629;46.040;18.232;2023-10-13T03:12:34;99964.28;;;14.95;100.00
78354;BME280;67629;46.040;18.232;2023-10-13T03:13:06;99969.50;;;14.96;100.00
78354;BME280;67629;46.040;18.232;2023-10-13T03:13:40;99965.88;;;14.86;100.00
78354;BME280;67629;46.040;18.232;2023-10-13T03:14:21;99977.94;;;14.84;100.00
78354;BME280;67629;46.040;18.232;2023-10-13T03:14:58;99960.91;;;14.82;100.00
78354;BME280;67629;46.040;18.232;2023-10-13T03:15:43;99970.22;;;14.81;100.00
78354;BME280;67629;46.040;18.232;2023-10-13T03:16:18;99969.38;;;14.81;100.00
78354;BME280;67629;46.040;18.232;2023-10-13T03:16:54;99967.13;;;14.73;100.00
78354;BME280;67629;46.040;18.232;2023-10-13T03:17:25;99962.47;;;14.73;100.00
78354;BME280;67629;46.040;18.232;2023-10-13T03:18:04;99961.66;;;14.78;100.00
78354;BME280;67629;46.040;18.232;2023-10-13T03:18:35;99966.63;;;14.81;100.00
78354;BME280;67629;46.040;18.232;2023-10-13T03:19:06;99970.50;;;14.80;100.00
78354;BME280;67629;46.040;18.232;2023-10-13T03:19:43;99972.19;;;14.86;100.00
78354;BME280;67629;46.040;18.232;2023-10-13T03:20:20;99960.09;;;14.87;100.00
78354;BME280;67629;46.040;18.232;2023-10-13T03:21:04;99971.34;;;14.80;100.00
78354;BME280;67629;46.040;18.232;2023-10-13T03:21:35;99962.78;;;14.77;100.00
78354;BME280;67629;46.040;18.232;2023-10-13T03:22:10;99971.06;;;14.82;100.00
78354;BME280;67629;46.040;18.232;2023-10-13T03:22:43;99961.44;;;14.84;100.00
78354;BME280;67629;46.040;18.232;2023-10-13T03:23:16;99968.34;;;14.87;100.00
78354;BME280;67629;46.040;18.232;2023-10-13T03:23:47;99955.09;;;14.79;100.00
78354;BME280;67629;46.040;18.232;2023-10-13T03:24:18;99962.22;;;14.75;100.00
78354;BME280;67629;46.040;18.232;2023-10-13T03:24:53;99954.75;;;14.70;100.00
78354;BME280;67629;46.040;18.232;2023-10-13T03:25:24;99964.69;;;14.76;100.00
78354;BME280;67629;46.040;18.232;2023-10-13T03:36:04;99968.69;;;14.96;100.00
78354;BME280;67629;46.040;18.232;2023-10-13T03:36:36;99964.22;;;14.90;100.00
78354;BME280;67629;46.040;18.232;2023-10-13T03:37:54;99976.53;;;14.77;100.00
78354;BME280;67629;46.040;18.232;2023-10-13T03:38:25;99965.25;;;14.78;100.00
78354;BME280;67629;46.040;18.232;2023-10-13T03:38:57;99969.69;;;14.84;100.00
78354;BME280;67629;46.040;18.232;2023-10-13T03:39:28;99964.22;;;14.90;100.00
78354;BME280;67629;46.040;18.232;2023-10-13T03:40:00;99967.81;;;14.90;100.00
78354;BME280;67629;46.040;18.232;2023-10-13T03:40:32;99964.75;;;14.87;100.00
78354;BME280;67629;46.040;18.232;2023-10-13T03:41:02;99969.34;;;14.76;100.00